sensor_id;sensor_type;location;lat;lon;timestamp;P1;durP1;ratioP1;P2;durP2;ratioP2
69621;SDS011;56841;55.964;37.674;2022-07-29T00:00:05;2.65;;;1.58;;
69621;SDS011;56841;55.964;37.674;2022-07-29T00:02:32;4.15;;;1.50;;
69621;SDS011;56841;55.964;37.674;2022-07-29T00:04:58;2.38;;;1.20;;
69621;SDS011;56841;55.964;37.674;2022-07-29T00:07:24;4.07;;;1.45;;
69621;SDS011;56841;55.964;37.674;2022-07-29T00:09:50;2.17;;;1.40;;
69621;SDS011;56841;55.964;37.674;2022-07-29T00:12:16;3.85;;;1.92;;
69621;SDS011;56841;55.964;37.674;2022-07-29T00:14:42;2.80;;;1.90;;
69621;SDS011;56841;55.964;37.674;2022-07-29T00:17:07;3.30;;;1.90;;
69621;SDS011;56841;55.964;37.674;2022-07-29T00:19:33;4.35;;;1.70;;
69621;SDS011;56841;55.964;37.674;2022-07-29T00:21:59;2.97;;;1.70;;
69621;SDS011;56841;55.964;37.674;2022-07-29T00:24:26;4.20;;;2.15;;
69621;SDS011;56841;55.964;37.674;2022-07-29T00:26:52;3.70;;;1.63;;
69621;SDS011;56841;55.964;37.674;2022-07-29T00:29:18;3.85;;;1.42;;
69621;SDS011;56841;55.964;37.674;2022-07-29T00:31:43;4.25;;;1.70;;
69621;SDS011;56841;55.964;37.674;2022-07-29T00:34:09;2.42;;;1.42;;
69621;SDS011;56841;55.964;37.674;2022-07-29T00:36:55;5.30;;;1.90;;
69621;SDS011;56841;55.964;37.674;2022-07-29T00:39:22;4.60;;;1.65;;
69621;SDS011;56841;55.964;37.674;2022-07-29T00:41:48;3.13;;;1.50;;
69621;SDS011;56841;55.964;37.674;2022-07-29T00:44:14;6.72;;;1.88;;
69621;SDS011;56841;55.964;37.674;2022-07-29T00:46:39;4.88;;;1.63;;
69621;SDS011;56841;55.964;37.674;2022-07-29T00:49:05;5.05;;;1.90;;
69621;SDS011;56841;55.964;37.674;2022-07-29T00:51:34;3.70;;;1.88;;
69621;SDS011;56841;55.964;37.674;2022-07-29T00:54:02;3.08;;;1.80;;
69621;SDS011;56841;55.964;37.674;2022-07-29T00:56:29;3.53;;;1.90;;
69621;SDS011;56841;55.964;37.674;2022-07-29T00:58:56;2.78;;;1.52;;
69621;SDS011;56841;55.964;37.674;2022-07-29T01:01:23;3.67;;;1.77;;
69621;SDS011;56841;55.964;37.674;2022-07-29T01:03:48;2.90;;;1.48;;
69621;SDS011;56841;55.964;37.674;2022-07-29T01:06:15;3.88;;;1.63;;
69621;SDS011;56841;55.964;37.674;2022-07-29T01:08:43;4.47;;;2.08;;
69621;SDS011;56841;55.964;37.674;2022-07-29T01:11:10;3.90;;;2.00;;
69621;SDS011;56841;55.964;37.674;2022-07-29T01:13:37;4.93;;;1.98;;
69621;SDS011;56841;55.964;37.674;2022-07-29T01:16:25;4.40;;;2.17;;
69621;SDS011;56841;55.964;37.674;2022-07-29T01:19:07;3.70;;;1.25;;
69621;SDS011;56841;55.964;37.674;2022-07-29T01:21:58;3.92;;;2.00;;
69621;SDS011;56841;55.964;37.674;2022-07-29T01:24:36;5.70;;;2.15;;
69621;SDS011;56841;55.964;37.674;2022-07-29T01:30:14;3.15;;;1.90;;
69621;SDS011;56841;55.964;37.674;2022-07-29T01:32:41;4.72;;;2.10;;
69621;SDS011;56841;55.964;37.674;2022-07-29T01:35:20;3.45;;;1.50;;
69621;SDS011;56841;55.964;37.674;2022-07-29T01:40:35;6.15;;;2.50;;
69621;SDS011;56841;55.964;37.674;2022-07-29T01:43:23;4.13;;;2.28;;
69621;SDS011;56841;55.964;37.674;2022-07-29T01:45:57;5.82;;;2.45;;
69621;SDS011;56841;55.964;37.674;2022-07-29T01:51:08;5.07;;;2.50;;
69621;SDS011;56841;55.964;37.674;2022-07-29T01:54:08;4.72;;;1.65;;
69621;SDS011;56841;55.964;37.674;2022-07-29T01:56:39;5.38;;;2.42;;
69621;SDS011;56841;55.964;37.674;2022-07-29T01:59:08;5.10;;;2.22;;
69621;SDS011;56841;55.964;37.674;2022-07-29T02:01:36;7.70;;;2.20;;
69621;SDS011;56841;55.964;37.674;2022-07-29T02:04:06;4.20;;;2.00;;
69621;SDS011;56841;55.964;37.674;2022-07-29T02:06:35;4.25;;;1.40;;
69621;SDS011;56841;55.964;37.674;2022-07-29T02:09:03;7.88;;;2.50;;
69621;SDS011;56841;55.964;37.674;2022-07-29T02:11:31;6.40;;;2.45;;
69621;SDS011;56841;55.964;37.674;2022-07-29T02:14:00;6.85;;;2.67;;
69621;SDS011;56841;55.964;37.674;2022-07-29T02:16:28;5.85;;;2.80;;
69621;SDS011;56841;55.964;37.674;2022-07-29T02:18:57;5.70;;;3.00;;
69621;SDS011;56841;55.964;37.674;2022-07-29T02:21:26;6.32;;;2.60;;
69621;SDS011;56841;55.964;37.674;2022-07-29T02:23:53;4.82;;;2.67;;
69621;SDS011;56841;55.964;37.674;2022-07-29T02:26:21;5.53;;;2.75;;
69621;SDS011;56841;55.964;37.674;2022-07-29T02:28:50;6.38;;;2.90;;
69621;SDS011;56841;55.964;37.674;2022-07-29T02:31:20;4.55;;;2.75;;
69621;SDS011;56841;55.964;37.674;2022-07-29T02:33:49;6.32;;;2.33;;
69621;SDS011;56841;55.964;37.674;2022-07-29T02:36:17;5.72;;;2.13;;
69621;SDS011;56841;55.964;37.674;2022-07-29T02:38:46;3.70;;;1.73;;
69621;SDS011;56841;55.964;37.674;2022-07-29T02:41:20;8.70;;;2.20;;
69621;SDS011;56841;55.964;37.674;2022-07-29T02:43:56;8.38;;;2.50;;
69621;SDS011;56841;55.964;37.674;2022-07-29T02:46:36;4.00;;;1.90;;
69621;SDS011;56841;55.964;37.674;2022-07-29T02:49:09;4.47;;;2.30;;
69621;SDS011;56841;55.964;37.674;2022-07-29T02:51:46;5.80;;;2.28;;
69621;SDS011;56841;55.964;37.674;2022-07-29T02:54:24;5.25;;;2.00;;
69621;SDS011;56841;55.964;37.674;2022-07-29T02:56:57;5.35;;;2.05;;
69621;SDS011;56841;55.964;37.674;2022-07-29T02:59:26;4.97;;;2.00;;
69621;SDS011;56841;55.964;37.674;2022-07-29T03:01:56;4.35;;;2.08;;
69621;SDS011;56841;55.964;37.674;2022-07-29T03:04:24;3.45;;;1.73;;
69621;SDS011;56841;55.964;37.674;2022-07-29T03:06:51;4.80;;;1.92;;
69621;SDS011;56841;55.964;37.674;2022-07-29T03:09:18;2.15;;;1.15;;
69621;SDS011;56841;55.964;37.674;2022-07-29T03:11:44;4.75;;;1.88;;
69621;SDS011;56841;55.964;37.674;2022-07-29T03:14:10;3.95;;;1.60;;
69621;SDS011;56841;55.964;37.674;2022-07-29T03:16:37;5.93;;;2.00;;
69621;SDS011;56841;55.964;37.674;2022-07-29T03:19:03;6.47;;;1.90;;
69621;SDS011;56841;55.964;37.674;2022-07-29T03:21:30;3.45;;;1.60;;
69621;SDS011;56841;55.964;37.674;2022-07-29T03:23:56;4.70;;;1.50;;
69621;SDS011;56841;55.964;37.674;2022-07-29T03:26:22;3.92;;;1.58;;
69621;SDS011;56841;55.964;37.674;2022-07-29T03:28:48;3.35;;;1.70;;
69621;SDS011;56841;55.964;37.674;2022-07-29T03:31:14;5.13;;;1.90;;
69621;SDS011;56841;55.964;37.674;2022-07-29T03:33:39;3.30;;;1.75;;
69621;SDS011;56841;55.964;37.674;2022-07-29T03:36:05;5.88;;;1.70;;
69621;SDS011;56841;55.964;37.674;2022-07-29T03:38:32;3.75;;;1.60;;
69621;SDS011;56841;55.964;37.674;2022-07-29T03:41:04;4.57;;;1.90;;
69621;SDS011;56841;55.964;37.674;2022-07-29T03:43:34;6.47;;;1.60;;
69621;SDS011;56841;55.964;37.674;2022-07-29T03:46:03;4.50;;;1.52;;
69621;SDS011;56841;55.964;37.674;2022-07-29T03:48:36;5.45;;;1.52;;
69621;SDS011;56841;55.964;37.674;2022-07-29T03:51:05;4.55;;;1.70;;
69621;SDS011;56841;55.964;37.674;2022-07-29T03:53:31;6.13;;;1.70;;
69621;SDS011;56841;55.964;37.674;2022-07-29T03:55:58;4.63;;;1.60;;
69621;SDS011;56841;55.964;37.674;2022-07-29T03:58:27;4.53;;;1.70;;
69621;SDS011;56841;55.964;37.674;2022-07-29T04:00:55;3.85;;;1.63;;
69621;SDS011;56841;55.964;37.674;2022-07-29T04:03:22;3.03;;;1.10;;
69621;SDS011;56841;55.964;37.674;2022-07-29T04:05:58;3.65;;;1.20;;
69621;SDS011;56841;55.964;37.674;2022-07-29T04:08:31;5.45;;;1.70;;
69621;SDS011;56841;55.964;37.674;2022-07-29T04:10:58;4.95;;;1.60;;
69621;SDS011;56841;55.964;37.674;2022-07-29T04:13:25;4.07;;;1.67;;
69621;SDS011;56841;55.964;37.674;2022-07-29T04:15:51;3.20;;;1.50;;
69621;SDS011;56841;55.964;37.674;2022-07-29T04:18:17;3.20;;;1.40;;
69621;SDS011;56841;55.964;37.674;2022-07-29T04:20:43;5.05;;;1.60;;
69621;SDS011;56841;55.964;37.674;2022-07-29T04:23:09;6.40;;;1.33;;
69621;SDS011;56841;55.964;37.674;2022-07-29T04:25:38;4.18;;;1.50;;
69621;SDS011;56841;55.964;37.674;2022-07-29T04:28:05;5.75;;;1.80;;
69621;SDS011;56841;55.964;37.674;2022-07-29T04:30:31;2.80;;;1.42;;
69621;SDS011;56841;55.964;37.674;2022-07-29T04:32:59;2.83;;;1.35;;
69621;SDS011;56841;55.964;37.674;2022-07-29T04:35:30;3.20;;;1.00;;
69621;SDS011;56841;55.964;37.674;2022-07-29T04:37:58;2.85;;;1.02;;
69621;SDS011;56841;55.964;37.674;2022-07-29T04:40:25;3.33;;;1.45;;
69621;SDS011;56841;55.964;37.674;2022-07-29T04:42:51;3.90;;;1.70;;
69621;SDS011;56841;55.964;37.674;2022-07-29T04:45:16;3.70;;;1.20;;
69621;SDS011;56841;55.964;37.674;2022-07-29T04:47:42;3.47;;;1.00;;
69621;SDS011;56841;55.964;37.674;2022-07-29T04:50:08;9.35;;;1.80;;
69621;SDS011;56841;55.964;37.674;2022-07-29T04:52:35;5.05;;;1.50;;
69621;SDS011;56841;55.964;37.674;2022-07-29T04:55:02;4.90;;;1.40;;
69621;SDS011;56841;55.964;37.674;2022-07-29T04:57:29;3.47;;;1.20;;
69621;SDS011;56841;55.964;37.674;2022-07-29T04:59:55;3.15;;;1.20;;
69621;SDS011;56841;55.964;37.674;2022-07-29T05:02:21;4.97;;;1.23;;
69621;SDS011;56841;55.964;37.674;2022-07-29T05:04:47;3.55;;;1.42;;
69621;SDS011;56841;55.964;37.674;2022-07-29T05:07:13;4.05;;;1.40;;
69621;SDS011;56841;55.964;37.674;2022-07-29T05:09:40;3.25;;;1.00;;
69621;SDS011;56841;55.964;37.674;2022-07-29T05:12:06;5.63;;;1.60;;
69621;SDS011;56841;55.964;37.674;2022-07-29T05:14:32;4.75;;;1.60;;
69621;SDS011;56841;55.964;37.674;2022-07-29T05:16:58;5.40;;;1.60;;
69621;SDS011;56841;55.964;37.674;2022-07-29T05:19:24;2.80;;;1.20;;
69621;SDS011;56841;55.964;37.674;2022-07-29T05:21:50;2.63;;;1.10;;
69621;SDS011;56841;55.964;37.674;2022-07-29T05:24:15;2.78;;;1.17;;
69621;SDS011;56841;55.964;37.674;2022-07-29T05:26:41;3.90;;;1.27;;
69621;SDS011;56841;55.964;37.674;2022-07-29T05:29:07;4.38;;;1.23;;
69621;SDS011;56841;55.964;37.674;2022-07-29T05:31:33;6.30;;;1.50;;
69621;SDS011;56841;55.964;37.674;2022-07-29T05:33:59;4.07;;;1.30;;
69621;SDS011;56841;55.964;37.674;2022-07-29T05:36:25;3.30;;;1.20;;
69621;SDS011;56841;55.964;37.674;2022-07-29T05:38:51;3.38;;;1.20;;
69621;SDS011;56841;55.964;37.674;2022-07-29T05:41:17;2.42;;;1.10;;
69621;SDS011;56841;55.964;37.674;2022-07-29T05:43:44;3.08;;;1.33;;
69621;SDS011;56841;55.964;37.674;2022-07-29T05:46:09;5.03;;;1.63;;
69621;SDS011;56841;55.964;37.674;2022-07-29T05:48:35;4.97;;;2.10;;
69621;SDS011;56841;55.964;37.674;2022-07-29T05:51:01;6.43;;;1.70;;
69621;SDS011;56841;55.964;37.674;2022-07-29T05:53:27;4.43;;;1.40;;
69621;SDS011;56841;55.964;37.674;2022-07-29T05:55:53;5.13;;;1.20;;
69621;SDS011;56841;55.964;37.674;2022-07-29T05:58:20;2.95;;;0.98;;
69621;SDS011;56841;55.964;37.674;2022-07-29T06:00:45;3.97;;;1.00;;
69621;SDS011;56841;55.964;37.674;2022-07-29T06:03:12;3.03;;;1.00;;
69621;SDS011;56841;55.964;37.674;2022-07-29T06:05:37;6.25;;;1.02;;
69621;SDS011;56841;55.964;37.674;2022-07-29T06:08:03;1.60;;;0.95;;
69621;SDS011;56841;55.964;37.674;2022-07-29T06:10:34;3.60;;;0.93;;
69621;SDS011;56841;55.964;37.674;2022-07-29T06:13:00;3.15;;;1.00;;
69621;SDS011;56841;55.964;37.674;2022-07-29T06:15:26;5.28;;;1.20;;
69621;SDS011;56841;55.964;37.674;2022-07-29T06:17:52;2.38;;;0.77;;
69621;SDS011;56841;55.964;37.674;2022-07-29T06:20:18;5.30;;;1.20;;
69621;SDS011;56841;55.964;37.674;2022-07-29T06:22:44;6.57;;;1.70;;
69621;SDS011;56841;55.964;37.674;2022-07-29T06:25:10;1.20;;;0.73;;
69621;SDS011;56841;55.964;37.674;2022-07-29T06:27:37;2.80;;;1.10;;
69621;SDS011;56841;55.964;37.674;2022-07-29T06:30:03;3.55;;;1.00;;
69621;SDS011;56841;55.964;37.674;2022-07-29T06:32:32;2.42;;;0.73;;
69621;SDS011;56841;55.964;37.674;2022-07-29T06:34:57;4.15;;;1.10;;
69621;SDS011;56841;55.964;37.674;2022-07-29T06:37:23;3.47;;;1.40;;
69621;SDS011;56841;55.964;37.674;2022-07-29T06:39:49;3.03;;;1.20;;
69621;SDS011;56841;55.964;37.674;2022-07-29T06:42:36;1.98;;;1.00;;
69621;SDS011;56841;55.964;37.674;2022-07-29T06:45:01;3.92;;;1.10;;
69621;SDS011;56841;55.964;37.674;2022-07-29T06:47:29;4.22;;;1.20;;
69621;SDS011;56841;55.964;37.674;2022-07-29T06:49:54;1.45;;;0.75;;
69621;SDS011;56841;55.964;37.674;2022-07-29T06:52:20;2.80;;;0.82;;
69621;SDS011;56841;55.964;37.674;2022-07-29T06:54:46;2.97;;;0.88;;
69621;SDS011;56841;55.964;37.674;2022-07-29T06:57:13;2.80;;;1.23;;
69621;SDS011;56841;55.964;37.674;2022-07-29T06:59:39;2.55;;;1.60;;
69621;SDS011;56841;55.964;37.674;2022-07-29T07:02:05;2.40;;;0.80;;
69621;SDS011;56841;55.964;37.674;2022-07-29T07:04:31;2.53;;;1.10;;
69621;SDS011;56841;55.964;37.674;2022-07-29T07:06:57;3.65;;;1.30;;
69621;SDS011;56841;55.964;37.674;2022-07-29T07:09:24;2.58;;;0.88;;
69621;SDS011;56841;55.964;37.674;2022-07-29T07:11:50;3.13;;;1.00;;
69621;SDS011;56841;55.964;37.674;2022-07-29T07:14:15;1.73;;;0.95;;
69621;SDS011;56841;55.964;37.674;2022-07-29T07:16:41;3.40;;;1.30;;
69621;SDS011;56841;55.964;37.674;2022-07-29T07:19:07;3.17;;;0.95;;
69621;SDS011;56841;55.964;37.674;2022-07-29T07:21:33;2.15;;;1.05;;
69621;SDS011;56841;55.964;37.674;2022-07-29T07:23:59;4.85;;;0.98;;
69621;SDS011;56841;55.964;37.674;2022-07-29T07:26:26;2.17;;;1.00;;
69621;SDS011;56841;55.964;37.674;2022-07-29T07:28:52;1.60;;;0.90;;
69621;SDS011;56841;55.964;37.674;2022-07-29T07:31:18;3.08;;;1.00;;
69621;SDS011;56841;55.964;37.674;2022-07-29T07:33:45;4.35;;;1.05;;
69621;SDS011;56841;55.964;37.674;2022-07-29T07:36:11;2.28;;;0.90;;
69621;SDS011;56841;55.964;37.674;2022-07-29T07:38:36;1.40;;;0.80;;
69621;SDS011;56841;55.964;37.674;2022-07-29T07:41:03;4.03;;;0.90;;
69621;SDS011;56841;55.964;37.674;2022-07-29T07:43:28;4.07;;;0.95;;
69621;SDS011;56841;55.964;37.674;2022-07-29T07:45:54;2.35;;;1.08;;
69621;SDS011;56841;55.964;37.674;2022-07-29T07:48:20;2.10;;;0.82;;
69621;SDS011;56841;55.964;37.674;2022-07-29T07:50:46;3.47;;;1.02;;
69621;SDS011;56841;55.964;37.674;2022-07-29T07:53:11;3.75;;;1.30;;
69621;SDS011;56841;55.964;37.674;2022-07-29T07:55:42;4.03;;;1.08;;
69621;SDS011;56841;55.964;37.674;2022-07-29T07:58:09;2.78;;;1.40;;
69621;SDS011;56841;55.964;37.674;2022-07-29T08:00:35;4.50;;;1.20;;
69621;SDS011;56841;55.964;37.674;2022-07-29T08:03:01;4.15;;;1.10;;
69621;SDS011;56841;55.964;37.674;2022-07-29T08:05:27;2.50;;;0.95;;
69621;SDS011;56841;55.964;37.674;2022-07-29T08:07:53;1.80;;;0.98;;
69621;SDS011;56841;55.964;37.674;2022-07-29T08:10:19;1.55;;;0.90;;
69621;SDS011;56841;55.964;37.674;2022-07-29T08:13:06;2.17;;;0.90;;
69621;SDS011;56841;55.964;37.674;2022-07-29T08:15:33;1.60;;;0.82;;
69621;SDS011;56841;55.964;37.674;2022-07-29T08:17:59;5.50;;;1.27;;
69621;SDS011;56841;55.964;37.674;2022-07-29T08:20:25;2.47;;;0.95;;
69621;SDS011;56841;55.964;37.674;2022-07-29T08:22:51;2.20;;;1.10;;
69621;SDS011;56841;55.964;37.674;2022-07-29T08:25:19;3.47;;;1.10;;
69621;SDS011;56841;55.964;37.674;2022-07-29T08:27:46;4.05;;;1.10;;
69621;SDS011;56841;55.964;37.674;2022-07-29T08:30:13;3.08;;;1.05;;
69621;SDS011;56841;55.964;37.674;2022-07-29T08:32:38;3.33;;;0.90;;
69621;SDS011;56841;55.964;37.674;2022-07-29T08:35:04;1.67;;;0.70;;
69621;SDS011;56841;55.964;37.674;2022-07-29T08:37:31;3.42;;;1.00;;
69621;SDS011;56841;55.964;37.674;2022-07-29T08:39:56;2.35;;;0.90;;
69621;SDS011;56841;55.964;37.674;2022-07-29T08:42:22;3.92;;;0.98;;
69621;SDS011;56841;55.964;37.674;2022-07-29T08:44:49;3.45;;;0.90;;
69621;SDS011;56841;55.964;37.674;2022-07-29T08:47:17;2.63;;;1.00;;
69621;SDS011;56841;55.964;37.674;2022-07-29T08:49:44;2.72;;;0.80;;
69621;SDS011;56841;55.964;37.674;2022-07-29T08:52:12;4.13;;;1.13;;
69621;SDS011;56841;55.964;37.674;2022-07-29T08:54:40;2.95;;;0.90;;
69621;SDS011;56841;55.964;37.674;2022-07-29T08:57:14;2.95;;;0.90;;
69621;SDS011;56841;55.964;37.674;2022-07-29T08:59:43;2.40;;;0.80;;
69621;SDS011;56841;55.964;37.674;2022-07-29T09:02:20;4.65;;;1.10;;
69621;SDS011;56841;55.964;37.674;2022-07-29T09:04:48;1.77;;;0.80;;
69621;SDS011;56841;55.964;37.674;2022-07-29T09:07:15;1.92;;;0.90;;
69621;SDS011;56841;55.964;37.674;2022-07-29T09:09:42;3.58;;;0.80;;
69621;SDS011;56841;55.964;37.674;2022-07-29T09:12:09;1.50;;;0.65;;
69621;SDS011;56841;55.964;37.674;2022-07-29T09:14:37;1.83;;;0.93;;
69621;SDS011;56841;55.964;37.674;2022-07-29T09:17:04;2.70;;;1.00;;
69621;SDS011;56841;55.964;37.674;2022-07-29T09:19:32;3.47;;;1.05;;
69621;SDS011;56841;55.964;37.674;2022-07-29T09:24:39;5.68;;;2.45;;
69621;SDS011;56841;55.964;37.674;2022-07-29T09:27:17;4.88;;;1.63;;
69621;SDS011;56841;55.964;37.674;2022-07-29T09:29:47;3.92;;;1.40;;
69621;SDS011;56841;55.964;37.674;2022-07-29T09:32:21;3.38;;;1.20;;
69621;SDS011;56841;55.964;37.674;2022-07-29T09:34:47;2.90;;;1.02;;
69621;SDS011;56841;55.964;37.674;2022-07-29T09:37:25;2.75;;;1.00;;
69621;SDS011;56841;55.964;37.674;2022-07-29T09:39:51;1.83;;;0.85;;
69621;SDS011;56841;55.964;37.674;2022-07-29T09:42:27;2.95;;;0.77;;
69621;SDS011;56841;55.964;37.674;2022-07-29T09:44:54;1.30;;;0.50;;
69621;SDS011;56841;55.964;37.674;2022-07-29T09:47:20;6.13;;;1.75;;
69621;SDS011;56841;55.964;37.674;2022-07-29T09:49:54;3.60;;;1.02;;
69621;SDS011;56841;55.964;37.674;2022-07-29T09:52:24;1.17;;;0.50;;
69621;SDS011;56841;55.964;37.674;2022-07-29T09:57:36;1.70;;;0.80;;
69621;SDS011;56841;55.964;37.674;2022-07-29T10:00:12;2.25;;;0.75;;
69621;SDS011;56841;55.964;37.674;2022-07-29T10:02:41;2.88;;;0.80;;
69621;SDS011;56841;55.964;37.674;2022-07-29T10:05:16;2.03;;;0.65;;
69621;SDS011;56841;55.964;37.674;2022-07-29T10:07:51;1.50;;;0.70;;
69621;SDS011;56841;55.964;37.674;2022-07-29T10:10:30;1.83;;;0.63;;
69621;SDS011;56841;55.964;37.674;2022-07-29T10:12:58;3.33;;;0.85;;
69621;SDS011;56841;55.964;37.674;2022-07-29T10:15:28;1.92;;;0.90;;
69621;SDS011;56841;55.964;37.674;2022-07-29T10:17:57;0.95;;;0.60;;
69621;SDS011;56841;55.964;37.674;2022-07-29T10:20:24;2.15;;;0.93;;
69621;SDS011;56841;55.964;37.674;2022-07-29T10:22:51;2.22;;;0.88;;
69621;SDS011;56841;55.964;37.674;2022-07-29T10:25:17;2.58;;;0.63;;
69621;SDS011;56841;55.964;37.674;2022-07-29T10:27:44;3.38;;;0.68;;
69621;SDS011;56841;55.964;37.674;2022-07-29T10:30:11;2.80;;;0.65;;
69621;SDS011;56841;55.964;37.674;2022-07-29T10:35:21;4.43;;;1.27;;
69621;SDS011;56841;55.964;37.674;2022-07-29T10:38:13;1.73;;;0.70;;
69621;SDS011;56841;55.964;37.674;2022-07-29T10:44:03;1.52;;;0.70;;
69621;SDS011;56841;55.964;37.674;2022-07-29T10:46:37;1.60;;;0.60;;
69621;SDS011;56841;55.964;37.674;2022-07-29T11:05:07;2.35;;;0.60;;
69621;SDS011;56841;55.964;37.674;2022-07-29T11:10:43;1.98;;;0.60;;
69621;SDS011;56841;55.964;37.674;2022-07-29T11:13:09;2.10;;;0.60;;
69621;SDS011;56841;55.964;37.674;2022-07-29T11:15:53;3.22;;;1.00;;
69621;SDS011;56841;55.964;37.674;2022-07-29T11:18:20;2.20;;;1.08;;
69621;SDS011;56841;55.964;37.674;2022-07-29T11:20:47;3.58;;;1.50;;
69621;SDS011;56841;55.964;37.674;2022-07-29T11:39:37;2.78;;;1.35;;
69621;SDS011;56841;55.964;37.674;2022-07-29T11:47:23;2.38;;;1.23;;
69621;SDS011;56841;55.964;37.674;2022-07-29T11:49:50;1.45;;;0.68;;
69621;SDS011;56841;55.964;37.674;2022-07-29T11:52:20;1.67;;;0.70;;
69621;SDS011;56841;55.964;37.674;2022-07-29T11:54:49;2.72;;;0.65;;
69621;SDS011;56841;55.964;37.674;2022-07-29T11:57:16;2.20;;;0.70;;
69621;SDS011;56841;55.964;37.674;2022-07-29T11:59:45;2.92;;;0.70;;
69621;SDS011;56841;55.964;37.674;2022-07-29T12:02:12;1.63;;;0.70;;
69621;SDS011;56841;55.964;37.674;2022-07-29T12:07:18;3.33;;;1.00;;
69621;SDS011;56841;55.964;37.674;2022-07-29T12:09:51;2.22;;;1.08;;
69621;SDS011;56841;55.964;37.674;2022-07-29T12:12:18;2.55;;;0.90;;
69621;SDS011;56841;55.964;37.674;2022-07-29T12:14:44;1.60;;;0.70;;
69621;SDS011;56841;55.964;37.674;2022-07-29T12:17:26;2.72;;;0.90;;
69621;SDS011;56841;55.964;37.674;2022-07-29T12:19:54;1.42;;;0.80;;
69621;SDS011;56841;55.964;37.674;2022-07-29T12:22:27;2.38;;;0.90;;
69621;SDS011;56841;55.964;37.674;2022-07-29T12:25:06;2.78;;;0.65;;
69621;SDS011;56841;55.964;37.674;2022-07-29T12:27:37;0.68;;;0.50;;
69621;SDS011;56841;55.964;37.674;2022-07-29T12:30:09;2.92;;;0.77;;
69621;SDS011;56841;55.964;37.674;2022-07-29T12:32:39;2.47;;;0.98;;
69621;SDS011;56841;55.964;37.674;2022-07-29T12:35:09;3.10;;;1.00;;
69621;SDS011;56841;55.964;37.674;2022-07-29T12:37:35;1.20;;;0.70;;
69621;SDS011;56841;55.964;37.674;2022-07-29T12:40:03;1.73;;;0.70;;
69621;SDS011;56841;55.964;37.674;2022-07-29T12:42:30;1.58;;;0.60;;
69621;SDS011;56841;55.964;37.674;2022-07-29T12:44:57;2.67;;;0.88;;
69621;SDS011;56841;55.964;37.674;2022-07-29T12:47:25;1.50;;;0.70;;
69621;SDS011;56841;55.964;37.674;2022-07-29T12:49:51;2.33;;;0.90;;
69621;SDS011;56841;55.964;37.674;2022-07-29T12:52:43;2.08;;;1.00;;
69621;SDS011;56841;55.964;37.674;2022-07-29T12:55:10;2.00;;;1.00;;
69621;SDS011;56841;55.964;37.674;2022-07-29T12:57:46;1.20;;;0.77;;
69621;SDS011;56841;55.964;37.674;2022-07-29T13:00:14;2.72;;;1.20;;
69621;SDS011;56841;55.964;37.674;2022-07-29T13:02:42;3.50;;;0.82;;
69621;SDS011;56841;55.964;37.674;2022-07-29T13:05:09;1.80;;;0.70;;
69621;SDS011;56841;55.964;37.674;2022-07-29T13:07:36;2.33;;;0.80;;
69621;SDS011;56841;55.964;37.674;2022-07-29T13:10:10;1.88;;;0.75;;
69621;SDS011;56841;55.964;37.674;2022-07-29T13:15:39;2.25;;;0.90;;
69621;SDS011;56841;55.964;37.674;2022-07-29T13:18:31;3.97;;;1.25;;
69621;SDS011;56841;55.964;37.674;2022-07-29T13:21:10;2.58;;;0.90;;
69621;SDS011;56841;55.964;37.674;2022-07-29T13:23:37;4.18;;;0.82;;
69621;SDS011;56841;55.964;37.674;2022-07-29T13:26:06;3.10;;;1.10;;
69621;SDS011;56841;55.964;37.674;2022-07-29T13:28:37;2.03;;;0.90;;
69621;SDS011;56841;55.964;37.674;2022-07-29T13:31:03;2.55;;;0.75;;
69621;SDS011;56841;55.964;37.674;2022-07-29T13:33:30;1.42;;;0.70;;
69621;SDS011;56841;55.964;37.674;2022-07-29T13:35:56;1.95;;;0.75;;
69621;SDS011;56841;55.964;37.674;2022-07-29T13:38:21;2.60;;;0.85;;
69621;SDS011;56841;55.964;37.674;2022-07-29T13:40:47;2.55;;;0.70;;
69621;SDS011;56841;55.964;37.674;2022-07-29T13:43:13;2.28;;;0.80;;
69621;SDS011;56841;55.964;37.674;2022-07-29T13:45:39;1.50;;;0.73;;
69621;SDS011;56841;55.964;37.674;2022-07-29T13:48:05;8.32;;;2.25;;
69621;SDS011;56841;55.964;37.674;2022-07-29T13:50:31;4.45;;;2.00;;
69621;SDS011;56841;55.964;37.674;2022-07-29T13:52:58;1.77;;;0.90;;
69621;SDS011;56841;55.964;37.674;2022-07-29T13:55:24;2.85;;;0.90;;
69621;SDS011;56841;55.964;37.674;2022-07-29T13:57:50;1.55;;;0.70;;
69621;SDS011;56841;55.964;37.674;2022-07-29T14:00:16;1.48;;;0.80;;
69621;SDS011;56841;55.964;37.674;2022-07-29T14:02:42;1.98;;;0.73;;
69621;SDS011;56841;55.964;37.674;2022-07-29T14:05:08;2.22;;;0.82;;
69621;SDS011;56841;55.964;37.674;2022-07-29T14:07:35;2.58;;;1.10;;
69621;SDS011;56841;55.964;37.674;2022-07-29T14:10:04;2.28;;;1.30;;
69621;SDS011;56841;55.964;37.674;2022-07-29T14:12:31;6.05;;;1.48;;
69621;SDS011;56841;55.964;37.674;2022-07-29T14:14:57;2.35;;;1.08;;
69621;SDS011;56841;55.964;37.674;2022-07-29T14:17:22;2.50;;;0.95;;
69621;SDS011;56841;55.964;37.674;2022-07-29T14:19:48;1.98;;;1.20;;
69621;SDS011;56841;55.964;37.674;2022-07-29T14:22:14;2.45;;;1.00;;
69621;SDS011;56841;55.964;37.674;2022-07-29T14:24:40;2.67;;;1.00;;
69621;SDS011;56841;55.964;37.674;2022-07-29T14:27:06;2.17;;;1.02;;
69621;SDS011;56841;55.964;37.674;2022-07-29T14:29:38;3.05;;;0.90;;
69621;SDS011;56841;55.964;37.674;2022-07-29T14:32:05;3.13;;;1.10;;
69621;SDS011;56841;55.964;37.674;2022-07-29T14:34:32;2.03;;;1.20;;
69621;SDS011;56841;55.964;37.674;2022-07-29T14:36:57;2.15;;;1.08;;
69621;SDS011;56841;55.964;37.674;2022-07-29T14:39:23;1.85;;;0.90;;
69621;SDS011;56841;55.964;37.674;2022-07-29T14:41:49;2.83;;;1.60;;
69621;SDS011;56841;55.964;37.674;2022-07-29T14:44:16;4.07;;;1.50;;
69621;SDS011;56841;55.964;37.674;2022-07-29T14:46:43;1.30;;;0.60;;
69621;SDS011;56841;55.964;37.674;2022-07-29T14:49:09;1.95;;;1.08;;
69621;SDS011;56841;55.964;37.674;2022-07-29T14:51:35;4.90;;;2.53;;
69621;SDS011;56841;55.964;37.674;2022-07-29T14:54:00;2.75;;;1.08;;
69621;SDS011;56841;55.964;37.674;2022-07-29T14:56:26;6.63;;;2.30;;
69621;SDS011;56841;55.964;37.674;2022-07-29T14:58:55;3.80;;;0.93;;
69621;SDS011;56841;55.964;37.674;2022-07-29T15:01:25;4.35;;;1.50;;
69621;SDS011;56841;55.964;37.674;2022-07-29T15:03:51;4.13;;;1.40;;
69621;SDS011;56841;55.964;37.674;2022-07-29T15:06:17;3.72;;;1.35;;
69621;SDS011;56841;55.964;37.674;2022-07-29T15:08:43;4.25;;;1.70;;
69621;SDS011;56841;55.964;37.674;2022-07-29T15:11:09;4.03;;;1.23;;
69621;SDS011;56841;55.964;37.674;2022-07-29T15:13:35;2.95;;;0.90;;
69621;SDS011;56841;55.964;37.674;2022-07-29T15:16:00;3.97;;;1.00;;
69621;SDS011;56841;55.964;37.674;2022-07-29T15:18:26;1.92;;;0.80;;
69621;SDS011;56841;55.964;37.674;2022-07-29T15:20:52;5.32;;;1.65;;
69621;SDS011;56841;55.964;37.674;2022-07-29T15:23:18;3.08;;;1.33;;
69621;SDS011;56841;55.964;37.674;2022-07-29T15:25:44;6.18;;;2.03;;
69621;SDS011;56841;55.964;37.674;2022-07-29T15:28:09;25.17;;;11.43;;
69621;SDS011;56841;55.964;37.674;2022-07-29T15:30:35;10.38;;;6.38;;
69621;SDS011;56841;55.964;37.674;2022-07-29T15:33:06;7.53;;;2.05;;
69621;SDS011;56841;55.964;37.674;2022-07-29T15:35:33;3.35;;;1.38;;
69621;SDS011;56841;55.964;37.674;2022-07-29T15:37:59;1.83;;;0.98;;
69621;SDS011;56841;55.964;37.674;2022-07-29T15:40:25;3.40;;;1.10;;
69621;SDS011;56841;55.964;37.674;2022-07-29T15:42:51;2.88;;;1.45;;
69621;SDS011;56841;55.964;37.674;2022-07-29T15:45:17;4.97;;;2.28;;